Rudyard, MI (49780)

3:35 AM EST on February 08, 2016 (GMT -0500)
MesoWest | | Change Station
CLOSE
Current Station
Personal Weather Station
Location: Rudyard, MI
Elevation: 668 ft
Nearby Weather Stations

Elev 668 ft 46.19 °N, 84.56 °W | Updated 45 minutes ago

Overcast
Overcast
39 °F
Feels Like 35 °F
N
5
Wind Variable Wind from East
Gusts 6.0 mph

Today
High -- | Low -- °F
--% Chance of Precip.
Yesterday
High -- | Low -- °F
Precip. -- in
Pressure 29.57 in
Visibility 10.0 miles
Clouds Mostly Cloudy 1800 ft
Mostly Cloudy 3200 ft
Overcast 7000 ft
Windchill 35 °F
Dew Point 39 °F
Humidity 99%
Rainfall in
Snow Depth Not available.
7:52 AM 5:52 PM
Waning Crescent, 0% visible
METAR KCIU 080815Z AUTO 14005KT 10SM BKN018 BKN032 OVC070 01/01 A2957 RMK AO1
Pressure 29.57 in
Visibility 10.0 miles
Clouds Mostly Cloudy 1800 ft
Mostly Cloudy 3200 ft
Overcast 7000 ft
Windchill 35 °F
Dew Point 39 °F
Humidity 99%
Rainfall in
Snow Depth Not available.
7:52 AM 5:52 PM
Waning Crescent, 0% visible
METAR KCIU 080815Z AUTO 14005KT 10SM BKN018 BKN032 OVC070 01/01 A2957 RMK AO1

10-Day Weather Forecast

Almanac

Astronomy

Feb. 08, 2016 Rise Set
Actual Time
Civil Twilight
Nautical Twilight
Astronomical Twilight
Moon
Length of Visible Light
Length of Day
Tomorrow will be .
, % of the Moon is Illuminated

Today's Extremes

State Highs State Lows

Community

WunderPhotos

Upload Photos

1,891,412 photos uploaded!

WunderBlog® & News

Nearby

Air Quality

  Air Quality AQ Index Pollutant
Not available.

Snow Depth

Station Depth Elevation

Earthquake Activity

City Distance Mag. Time & Date
Minimum magnitude displayed is 2.5.

Coastal Water Temperatures

Place Temperature

Stations

Nearby Weather Stations

Station Location Temp. Windchill Dew Point Humidity Wind Precip. Elev Updated Type
                   

Watches & Warnings

There are currently no watches in effect.